Strona główna
METAR-TAF:

METAR-TAF

Lotnisko :

Port lotniczy Akra

Akra, Ghana

Szerokość geograficzna: 05-36N, Długość geograficzna: 000-10W, wysokość: 68 m

Aktualna obserwacja pogody

Raport powstał 1 godzina i 19 minut temu, godzina 00:00 UTC
Wiatr 1 kt z kierunków zmiennych
Temperatura 26°C
Wilgotność 89%
Ciśnienie 1013 hPa
Widzialność 10 km lub więcej
Brak chmur poniżej 1500 m i brak chmur cumulonimbus

METAR: DGAA 050000Z VRB01KT CAVOK 26/24 Q1013 NOSIG

czas: 01:19 (01:19 UTC)

Prognoza

Raport powstał 2 godziny i 19 minut temu, godzina 23:00 UTC
Prognoza ważna od 05 godzina 00 UTC do 06 godzina 06 UTC
Wiatr 7 kt od zachód
Widzialność 10 km lub więcej
Rozproszone chmury na wysokości 1200 ft
Stopniowe zmiany
od 05 godzina 12 UTC do 05 godzina 14 UTC
Wiatr 15 kt od południe
Przejściowo
od 05 godzina 14 UTC do 05 godzina 18 UTC
Mało chmury na wysokości 3000 ft, Cumulonimbus.

TAF: DGAA 042300Z 0500/0606 26007KT 9999 SCT012 BECMG 0512/0514 19015KT TEMPO 0514/0518 FEW030CB

Obserwacja i prognoza pogody dla ponad 4000 lotnisk (raport METAR i TAF).

Dostępne stacje oznaczono żółtymi i czerwonymi punktami na mapie.

Najedź kursorem aby zobaczyć nazwę stacji.

Kliknij aby zobaczyć obserwacje i prognozy pogody.

Aby zmienić mapę: kliknij na zielony przycisk z czarnym krzyżykiem, aby powiększyć; na zielony przycisk z myślnikiem, aby pomniejszyć; na zielone strzałki, aby przejść do map sąsiednich.


METAR-TAF: